Time;durP1;ratioP1;P1;durP2;ratioP2;P2;SDS_P1;SDS_P2;PMS_P1;PMS_P2;Temp;Humidity;BMP_temperature;BMP_pressure;BME280_temperature;BME280_humidity;BME280_pressure;Samples;Min_cycle;Max_cycle;Signal;HPM_P1;HPM_P2
2024/03/21 00:01:19;;;;;;;;;;;;;;;8.78;100.00;96760.75;5083879;28;20223;-86
2024/03/21 00:03:45;;;;;;;;;;;;;;;8.73;100.00;96756.97;5083681;28;19943;-87
2024/03/21 00:06:12;;;;;;;;;;;;;;;8.72;100.00;96749.31;5083240;28;19955;-73
2024/03/21 00:08:38;;;;;;;;;;;;;;;8.71;100.00;96755.53;5083252;28;19957;-68
2024/03/21 00:11:03;;;;;;;;;;;;;;;8.69;100.00;96749.69;5086585;28;20243;-69
2024/03/21 00:13:29;;;;;;;;;;;;;;;8.68;100.00;96750.72;5086538;28;19942;-69
2024/03/21 00:15:55;;;;;;;;;;;;;;;8.68;100.00;96746.28;5086496;28;19934;-69
2024/03/21 00:18:23;;;;;;;;;;;;;;;8.67;100.00;96751.69;5068634;28;19940;-70
2024/03/21 00:20:49;;;;;;;;;;;;;;;8.63;100.00;96753.09;5086491;28;19939;-69
2024/03/21 00:23:15;;;;;;;;;;;;;;;8.61;100.00;96752.47;5086468;28;19931;-73
2024/03/21 00:25:41;;;;;;;;;;;;;;;8.58;100.00;96752.91;5086272;28;19957;-80
2024/03/21 00:28:07;;;;;;;;;;;;;;;8.54;100.00;96747.25;5086365;28;20267;-80
2024/03/21 00:30:33;;;;;;;;;;;;;;;8.50;100.00;96743.41;5086790;28;19937;-79
2024/03/21 00:33:00;;;;;;;;;;;;;;;8.48;100.00;96745.41;5068369;28;19945;-79
2024/03/21 00:35:26;;;;;;;;;;;;;;;8.45;100.00;96743.22;5086873;28;20230;-84
2024/03/21 00:37:51;;;;;;;;;;;;;;;8.41;100.00;96748.03;5086197;28;19975;-84
2024/03/21 00:40:17;;;;;;;;;;;;;;;8.40;100.00;96748.19;5086129;28;19936;-71
2024/03/21 00:42:43;;;;;;;;;;;;;;;8.37;100.00;96741.53;5085997;28;19971;-70
2024/03/21 00:45:09;;;;;;;;;;;;;;;8.34;100.00;96740.13;5086017;28;19942;-71
2024/03/21 00:47:35;;;;;;;;;;;;;;;8.33;100.00;96746.34;5068171;28;19999;-71
2024/03/21 00:50:01;;;;;;;;;;;;;;;8.31;100.00;96745.72;5085885;28;19995;-71
2024/03/21 00:52:27;;;;;;;;;;;;;;;8.29;100.00;96739.94;5068072;28;20009;-71
2024/03/21 00:54:53;;;;;;;;;;;;;;;8.27;100.00;96741.94;5086367;28;20011;-71
2024/03/21 00:57:19;;;;;;;;;;;;;;;8.26;100.00;96742.13;5068679;28;19941;-71
2024/03/21 00:59:46;;;;;;;;;;;;;;;8.24;100.00;96749.34;5086504;28;19943;-71
2024/03/21 01:02:14;;;;;;;;;;;;;;;8.23;100.00;96755.56;5067950;28;20227;-69
2024/03/21 01:04:43;;;;;;;;;;;;;;;8.23;100.00;96755.56;5085585;28;20223;-69
2024/03/21 01:07:09;;;;;;;;;;;;;;;8.23;100.00;96758.16;5068371;28;19964;-69
2024/03/21 01:09:36;;;;;;;;;;;;;;;8.24;100.00;96757.19;5086295;28;19953;-69
2024/03/21 01:12:02;;;;;;;;;;;;;;;8.24;100.00;96749.34;5085507;28;19939;-69
2024/03/21 01:14:28;;;;;;;;;;;;;;;8.23;100.00;96748.53;5086061;28;19940;-69
2024/03/21 01:16:54;;;;;;;;;;;;;;;8.23;100.00;96740.69;5067630;28;19946;-78
2024/03/21 01:19:20;;;;;;;;;;;;;;;8.22;100.00;96738.28;5086230;28;19932;-72
2024/03/21 01:21:46;;;;;;;;;;;;;;;8.19;100.00;96731.66;5085339;28;20245;-70
2024/03/21 01:24:12;;;;;;;;;;;;;;;8.19;100.00;96725.59;5085396;28;19936;-70
2024/03/21 01:26:38;;;;;;;;;;;;;;;8.18;100.00;96724.00;5067543;28;19957;-70
2024/03/21 01:29:05;;;;;;;;;;;;;;;8.14;100.00;96732.22;5085278;28;19934;-71
2024/03/21 01:31:31;;;;;;;;;;;;;;;8.08;100.00;96721.75;5085094;28;19938;-71
2024/03/21 01:33:56;;;;;;;;;;;;;;;8.04;100.00;96717.91;5085109;28;19936;-71
2024/03/21 01:36:22;;;;;;;;;;;;;;;8.02;100.00;96720.72;5085596;28;19960;-69
2024/03/21 01:38:49;;;;;;;;;;;;;;;8.05;100.00;96732.59;5084968;28;20228;-70
2024/03/21 01:41:14;;;;;;;;;;;;;;;8.06;100.00;96726.34;5084749;28;19986;-70
2024/03/21 01:43:40;;;;;;;;;;;;;;;8.08;100.00;96732.19;5067751;28;19950;-69
2024/03/21 01:46:13;;;;;;;;;;;;;;;8.08;100.00;96722.56;5067589;28;19974;-70
2024/03/21 01:48:43;;;;;;;;;;;;;;;8.10;100.00;96717.13;5066101;28;19937;-70
2024/03/21 01:51:10;;;;;;;;;;;;;;;8.11;100.00;96716.94;5083984;28;19951;-70
2024/03/21 01:53:36;;;;;;;;;;;;;;;8.12;100.00;96717.75;5085175;28;19951;-68
2024/03/21 01:56:02;;;;;;;;;;;;;;;8.14;100.00;96716.53;5084690;28;19940;-85
2024/03/21 01:58:27;;;;;;;;;;;;;;;8.14;100.00;96711.31;5066786;28;19970;-72
2024/03/21 02:00:54;;;;;;;;;;;;;;;8.17;100.00;96717.16;5066701;28;19981;-72
2024/03/21 02:03:20;;;;;;;;;;;;;;;8.16;100.00;96715.53;5084498;28;19939;-72
2024/03/21 02:05:46;;;;;;;;;;;;;;;8.15;100.00;96717.38;5084926;28;19936;-73
2024/03/21 02:08:12;;;;;;;;;;;;;;;8.16;100.00;96726.78;5067035;28;20237;-73
2024/03/21 02:10:38;;;;;;;;;;;;;;;8.16;100.00;96718.97;5085075;28;20219;-71
2024/03/21 02:13:05;;;;;;;;;;;;;;;8.19;100.00;96721.19;5067361;28;19936;-74
2024/03/21 02:15:31;;;;;;;;;;;;;;;8.20;100.00;96717.56;5049827;28;20143;-69
2024/03/21 02:17:58;;;;;;;;;;;;;;;8.23;100.00;96721.59;5084241;28;19960;-68
2024/03/21 02:20:24;;;;;;;;;;;;;;;8.24;100.00;96726.63;5084685;28;19933;-69
2024/03/21 02:22:50;;;;;;;;;;;;;;;8.26;100.00;96729.06;5050582;28;19956;-69
2024/03/21 02:25:16;;;;;;;;;;;;;;;8.26;100.00;96722.00;5084135;28;19992;-69
2024/03/21 02:27:42;;;;;;;;;;;;;;;8.26;100.00;96729.84;5084523;28;19960;-69
2024/03/21 02:30:09;;;;;;;;;;;;;;;8.26;100.00;96734.28;5084023;28;20019;-69
2024/03/21 02:32:36;;;;;;;;;;;;;;;8.27;100.00;96725.41;5065607;28;19939;-68
2024/03/21 02:35:03;;;;;;;;;;;;;;;8.27;100.00;96730.66;5084514;28;19943;-73
2024/03/21 02:37:30;;;;;;;;;;;;;;;8.27;100.00;96726.25;5066778;28;19955;-73
2024/03/21 02:39:55;;;;;;;;;;;;;;;8.27;100.00;96728.03;5083998;28;19936;-73
2024/03/21 02:42:22;;;;;;;;;;;;;;;8.28;100.00;96730.47;5083699;28;20004;-73
2024/03/21 02:44:48;;;;;;;;;;;;;;;8.29;100.00;96736.47;5084225;28;19943;-72
2024/03/21 02:47:14;;;;;;;;;;;;;;;8.29;100.00;96726.84;5083803;28;19950;-73
2024/03/21 02:49:40;;;;;;;;;;;;;;;8.31;100.00;96724.03;5083963;28;19938;-68
2024/03/21 02:52:06;;;;;;;;;;;;;;;8.32;100.00;96725.66;5084193;28;20012;-80
2024/03/21 02:54:32;;;;;;;;;;;;;;;8.32;100.00;96723.84;5083809;28;19995;-80
2024/03/21 02:56:58;;;;;;;;;;;;;;;8.33;100.00;96728.06;5084032;28;20004;-79
2024/03/21 02:59:24;;;;;;;;;;;;;;;8.36;100.00;96726.03;5083767;28;19935;-79
2024/03/21 03:01:50;;;;;;;;;;;;;;;8.39;100.00;96728.28;5083776;28;20258;-80
2024/03/21 03:04:16;;;;;;;;;;;;;;;8.40;100.00;96722.88;5083713;28;19936;-80
2024/03/21 03:06:42;;;;;;;;;;;;;;;8.43;100.00;96727.72;5065876;28;20003;-79
2024/03/21 03:09:08;;;;;;;;;;;;;;;8.46;100.00;96726.50;5083768;28;19977;-73
2024/03/21 03:11:37;;;;;;;;;;;;;;;8.48;100.00;96727.13;5083551;28;19941;-74
2024/03/21 03:14:03;;;;;;;;;;;;;;;8.50;100.00;96725.94;5066484;28;19947;-74
2024/03/21 03:16:29;;;;;;;;;;;;;;;8.54;100.00;96729.75;5066208;28;19937;-74
2024/03/21 03:18:55;;;;;;;;;;;;;;;8.58;100.00;96738.00;5083547;28;20120;-74
2024/03/21 03:21:21;;;;;;;;;;;;;;;8.58;100.00;96748.47;5083557;28;19987;-74
2024/03/21 03:23:47;;;;;;;;;;;;;;;8.61;100.00;96744.66;5083581;28;20020;-74
2024/03/21 03:26:12;;;;;;;;;;;;;;;8.63;100.00;96753.09;5083903;28;19959;-71
2024/03/21 03:28:38;;;;;;;;;;;;;;;8.64;100.00;96755.53;5083524;28;19939;-76
2024/03/21 03:31:04;;;;;;;;;;;;;;;8.66;100.00;96753.50;5065899;28;19930;-72
2024/03/21 03:36:14;;;;;;;;;;;;;;;8.70;100.00;96746.09;5083672;28;19942;-72
2024/03/21 03:38:40;;;;;;;;;;;;;;;8.72;100.00;96750.09;5083379;28;19937;-71
2024/03/21 03:41:06;;;;;;;;;;;;;;;8.74;100.00;96763.78;5083212;28;19933;-72
2024/03/21 03:43:32;;;;;;;;;;;;;;;8.74;100.00;96747.31;5084106;28;20255;-71
2024/03/21 03:45:58;;;;;;;;;;;;;;;8.75;100.00;96756.75;5087065;28;19943;-73
2024/03/21 03:48:24;;;;;;;;;;;;;;;8.77;100.00;96753.94;5053420;28;20007;-74
2024/03/21 03:50:49;;;;;;;;;;;;;;;8.78;100.00;96752.91;5087527;28;20207;-73
2024/03/21 03:53:15;;;;;;;;;;;;;;;8.80;100.00;96750.91;5069240;28;19945;-73
2024/03/21 03:55:41;;;;;;;;;;;;;;;8.81;100.00;96752.53;5086979;28;19936;-73
2024/03/21 03:58:07;;;;;;;;;;;;;;;8.81;100.00;96757.78;5087416;28;19936;-73
2024/03/21 04:00:33;;;;;;;;;;;;;;;8.83;100.00;96761.78;5087538;28;20232;-73
2024/03/21 04:02:59;;;;;;;;;;;;;;;8.84;100.00;96746.91;5086855;28;19983;-73
2024/03/21 04:05:25;;;;;;;;;;;;;;;8.84;100.00;96758.19;5069677;28;19936;-74
2024/03/21 04:07:51;;;;;;;;;;;;;;;8.86;100.00;96755.34;5087167;28;19958;-74
2024/03/21 04:10:17;;;;;;;;;;;;;;;8.84;100.00;96757.34;5069801;28;19935;-74
2024/03/21 04:12:43;;;;;;;;;;;;;;;8.85;100.00;96765.00;5068995;28;19932;-73
2024/03/21 04:15:09;;;;;;;;;;;;;;;8.86;100.00;96760.59;5087533;28;19949;-73
2024/03/21 04:17:35;;;;;;;;;;;;;;;8.88;100.00;96758.56;5068958;28;20142;-74
2024/03/21 04:20:06;;;;;;;;;;;;;;;8.89;100.00;96758.38;5069421;28;20002;-73
2024/03/21 04:22:35;;;;;;;;;;;;;;;8.92;100.00;96765.03;5087388;28;19937;-79
2024/03/21 04:25:03;;;;;;;;;;;;;;;8.92;100.00;96762.41;5069636;28;19934;-71
2024/03/21 04:27:29;;;;;;;;;;;;;;;8.94;100.00;96763.00;5086411;28;19955;-71
2024/03/21 04:29:55;;;;;;;;;;;;;;;8.93;100.00;96759.59;5086996;28;19940;-72
2024/03/21 04:32:21;;;;;;;;;;;;;;;8.93;100.00;96751.75;5085482;28;19973;-72
2024/03/21 04:34:47;;;;;;;;;;;;;;;8.93;100.00;96762.22;5068622;28;19998;-72
2024/03/21 04:37:16;;;;;;;;;;;;;;;8.92;100.00;96776.31;5068543;28;19935;-71
2024/03/21 04:39:43;;;;;;;;;;;;;;;8.91;100.00;96785.16;5087108;28;20100;-85
2024/03/21 04:42:09;;;;;;;;;;;;;;;8.92;100.00;96778.94;5086288;28;19972;-71
2024/03/21 04:44:35;;;;;;;;;;;;;;;8.91;100.00;96777.31;5051522;28;20221;-72
2024/03/21 04:47:01;;;;;;;;;;;;;;;8.93;100.00;96790.19;5068241;28;19955;-72
2024/03/21 04:49:27;;;;;;;;;;;;;;;8.92;100.00;96791.19;5068342;28;19949;-72
2024/03/21 04:51:53;;;;;;;;;;;;;;;8.91;100.00;96786.97;5086311;28;20223;-70
2024/03/21 04:54:19;;;;;;;;;;;;;;;8.91;100.00;96794.81;5085772;28;20007;-71
2024/03/21 04:56:46;;;;;;;;;;;;;;;8.91;100.00;96785.16;5086319;28;19934;-72
2024/03/21 04:59:12;;;;;;;;;;;;;;;8.92;100.00;96791.19;5085997;28;19937;-70
2024/03/21 05:01:38;;;;;;;;;;;;;;;8.94;100.00;96786.56;5086693;28;20027;-71
2024/03/21 05:04:07;;;;;;;;;;;;;;;8.94;100.00;96787.38;5067911;28;19987;-71
2024/03/21 05:06:32;;;;;;;;;;;;;;;8.96;100.00;96791.59;5051877;28;19942;-72
2024/03/21 05:08:58;;;;;;;;;;;;;;;8.96;100.00;96797.63;5067888;28;20247;-71
2024/03/21 05:11:24;;;;;;;;;;;;;;;8.97;100.00;96785.38;5086190;28;19934;-71
2024/03/21 05:13:51;;;;;;;;;;;;;;;8.98;100.00;96784.34;5067940;28;19934;-71
2024/03/21 05:16:17;;;;;;;;;;;;;;;8.99;100.00;96791.19;5086365;28;19934;-71
2024/03/21 05:18:43;;;;;;;;;;;;;;;9.01;100.00;96789.16;5067835;28;19938;-82
2024/03/21 05:21:09;;;;;;;;;;;;;;;9.03;100.00;96788.00;5085551;28;19970;-80
2024/03/21 05:23:35;;;;;;;;;;;;;;;9.05;100.00;96785.97;5085430;28;19937;-79
2024/03/21 05:26:01;;;;;;;;;;;;;;;9.08;100.00;96795.25;5086206;28;20228;-79
2024/03/21 05:28:27;;;;;;;;;;;;;;;9.09;100.00;96791.59;5085230;28;19961;-79
2024/03/21 05:30:53;;;;;;;;;;;;;;;9.11;100.00;96787.81;5085320;28;19938;-78
2024/03/21 05:33:19;;;;;;;;;;;;;;;9.13;100.00;96793.66;5085222;28;19929;-79
2024/03/21 05:35:44;;;;;;;;;;;;;;;9.15;100.00;96788.19;5085229;28;19957;-71
2024/03/21 05:38:11;;;;;;;;;;;;;;;9.16;100.00;96794.25;5084307;28;20129;-71
2024/03/21 05:40:39;;;;;;;;;;;;;;;9.17;100.00;96795.84;5085067;28;20200;-70
2024/03/21 05:43:07;;;;;;;;;;;;;;;9.18;100.00;96795.66;5084979;28;19963;-70
2024/03/21 05:45:33;;;;;;;;;;;;;;;9.19;100.00;96801.69;5084999;28;19945;-71
2024/03/21 05:47:59;;;;;;;;;;;;;;;9.19;100.00;96818.19;5085631;28;19972;-71
2024/03/21 05:50:25;;;;;;;;;;;;;;;9.19;100.00;96806.91;5084928;28;20135;-71
2024/03/21 05:52:51;;;;;;;;;;;;;;;9.20;100.00;96811.13;5085113;28;19946;-69
2024/03/21 05:55:17;;;;;;;;;;;;;;;9.21;100.00;96810.16;5067010;28;19945;-73
2024/03/21 05:57:43;;;;;;;;;;;;;;;9.21;100.00;96799.69;5067561;28;19945;-71
2024/03/21 06:00:11;;;;;;;;;;;;;;;9.22;100.00;96802.09;5067642;28;19940;-71
2024/03/21 06:02:37;;;;;;;;;;;;;;;9.24;100.00;96813.19;5066674;28;19950;-71
2024/03/21 06:05:04;;;;;;;;;;;;;;;9.26;100.00;96812.94;5085134;28;19937;-71
2024/03/21 06:07:30;;;;;;;;;;;;;;;9.26;100.00;96821.63;5083725;28;19957;-71
2024/03/21 06:09:56;;;;;;;;;;;;;;;9.28;100.00;96822.25;5084433;28;19957;-71
2024/03/21 06:12:22;;;;;;;;;;;;;;;9.29;100.00;96825.66;5085244;28;20101;-70
2024/03/21 06:14:47;;;;;;;;;;;;;;;9.31;100.00;96828.88;5067505;28;19943;-69
2024/03/21 06:17:14;;;;;;;;;;;;;;;9.32;100.00;96831.31;5066903;28;19930;-69
2024/03/21 06:19:39;;;;;;;;;;;;;;;9.32;100.00;96820.00;5084808;28;19943;-69
2024/03/21 06:22:05;;;;;;;;;;;;;;;9.31;100.00;96824.44;5084802;28;19941;-69
2024/03/21 06:24:31;;;;;;;;;;;;;;;9.32;100.00;96823.44;5067164;28;19937;-68
2024/03/21 06:26:57;;;;;;;;;;;;;;;9.31;100.00;96815.78;5084189;28;19954;-69
2024/03/21 06:29:27;;;;;;;;;;;;;;;9.31;100.00;96826.25;5084681;28;19934;-69
2024/03/21 06:31:53;;;;;;;;;;;;;;;9.30;100.00;96842.97;5084138;28;19986;-79
2024/03/21 06:34:19;;;;;;;;;;;;;;;9.30;100.00;96843.78;5050493;28;20219;-80
2024/03/21 06:36:44;;;;;;;;;;;;;;;9.32;100.00;96847.00;5084626;28;19999;-80
2024/03/21 06:39:13;;;;;;;;;;;;;;;9.34;100.00;96852.84;5084582;28;19982;-80
2024/03/21 06:41:40;;;;;;;;;;;;;;;9.32;100.00;96847.00;5084182;28;19961;-80
2024/03/21 06:44:05;;;;;;;;;;;;;;;9.35;100.00;96858.88;5084769;28;20113;-80
2024/03/21 06:46:31;;;;;;;;;;;;;;;9.37;100.00;96853.47;5066123;28;19939;-80
2024/03/21 06:48:57;;;;;;;;;;;;;;;9.39;100.00;96849.63;5084420;28;20013;-71
2024/03/21 06:51:23;;;;;;;;;;;;;;;9.43;100.00;96848.22;5083927;28;19985;-68
2024/03/21 06:53:49;;;;;;;;;;;;;;;9.48;100.00;96855.47;5083904;28;19939;-69
2024/03/21 06:56:15;;;;;;;;;;;;;;;9.52;100.00;96856.69;5084361;28;19938;-70
2024/03/21 06:58:40;;;;;;;;;;;;;;;9.55;100.00;96854.47;5066054;28;19941;-69
2024/03/21 07:01:06;;;;;;;;;;;;;;;9.59;100.00;96851.44;5083862;28;19935;-69
2024/03/21 07:03:32;;;;;;;;;;;;;;;9.62;100.00;96853.69;5083826;28;20000;-69
2024/03/21 07:05:58;;;;;;;;;;;;;;;9.65;100.00;96859.28;5066013;28;19938;-69
2024/03/21 07:08:24;;;;;;;;;;;;;;;9.67;100.00;96859.91;5083619;28;20151;-84
2024/03/21 07:10:50;;;;;;;;;;;;;;;9.72;100.00;96861.91;5083776;28;19937;-74
2024/03/21 07:13:15;;;;;;;;;;;;;;;9.77;100.00;96872.59;5065934;28;19946;-75
2024/03/21 07:15:42;;;;;;;;;;;;;;;9.80;100.00;96869.56;5083640;28;19960;-74
2024/03/21 07:18:08;;;;;;;;;;;;;;;9.83;100.00;96876.25;5067644;28;20104;-75
2024/03/21 07:20:34;;;;;;;;;;;;;;;9.87;100.00;96866.94;5088188;28;19937;-74
2024/03/21 07:23:00;;;;;;;;;;;;;;;9.92;100.00;96878.44;5088261;28;19939;-74
2024/03/21 07:25:26;;;;;;;;;;;;;;;9.98;100.00;96879.44;5088247;28;19935;-71
2024/03/21 07:27:52;;;;;;;;;;;;;;;10.05;100.00;96880.22;5070057;28;19949;-75
2024/03/21 07:30:19;;;;;;;;;;;;;;;10.13;100.00;96887.88;5087585;28;19938;-77
2024/03/21 07:32:48;;;;;;;;;;;;;;;10.22;100.00;96882.44;5087577;28;19936;-76
2024/03/21 07:35:14;;;;;;;;;;;;;;;10.33;100.00;96887.88;5088329;28;19937;-76
2024/03/21 07:37:40;;;;;;;;;;;;;;;10.46;100.00;96886.25;5087975;28;20101;-76
2024/03/21 07:40:06;;;;;;;;;;;;;;;10.58;100.00;96889.81;5069663;28;19942;-77
2024/03/21 07:42:32;;;;;;;;;;;;;;;10.77;100.00;96899.47;5052764;28;19974;-76
2024/03/21 07:45:00;;;;;;;;;;;;;;;10.95;100.00;96896.13;5088113;28;19982;-85
2024/03/21 07:47:26;;;;;;;;;;;;;;;11.14;100.00;96899.69;5069441;28;20143;-71
2024/03/21 07:49:54;;;;;;;;;;;;;;;11.26;100.00;96894.59;5069315;28;19950;-71
2024/03/21 07:52:20;;;;;;;;;;;;;;;11.37;100.00;96908.88;5087020;28;20246;-71
2024/03/21 07:54:46;;;;;;;;;;;;;;;11.47;100.00;96895.28;5053162;28;19937;-71
2024/03/21 07:57:13;;;;;;;;;;;;;;;11.57;100.00;96898.25;5087831;28;19937;-71
2024/03/21 07:59:39;;;;;;;;;;;;;;;11.64;100.00;96895.56;5068993;28;19944;-71
2024/03/21 08:02:05;;;;;;;;;;;;;;;11.71;100.00;96910.25;5087771;28;20006;-70
2024/03/21 08:04:31;;;;;;;;;;;;;;;11.73;100.00;96920.53;5087750;28;19943;-79
2024/03/21 08:06:58;;;;;;;;;;;;;;;11.77;100.00;96913.84;5086829;28;20131;-77
2024/03/21 08:09:23;;;;;;;;;;;;;;;11.79;100.00;96917.06;5069084;28;19954;-78
2024/03/21 08:11:49;;;;;;;;;;;;;;;11.81;100.00;96915.03;5087058;28;19937;-77
2024/03/21 08:14:15;;;;;;;;;;;;;;;11.85;100.00;96920.69;5052306;28;19949;-78
2024/03/21 08:16:41;;;;;;;;;;;;;;;11.89;100.00;96922.69;5068796;28;19934;-77
2024/03/21 08:19:07;;;;;;;;;;;;;;;11.90;100.00;96921.66;5086647;28;19985;-78
2024/03/21 08:21:33;;;;;;;;;;;;;;;11.99;100.00;96930.09;5085807;28;19939;-73
2024/03/21 08:23:59;;;;;;;;;;;;;;;12.12;100.00;96921.28;5087174;28;19937;-71
2024/03/21 08:26:25;;;;;;;;;;;;;;;12.27;100.00;96923.59;5069335;28;19949;-71
2024/03/21 08:28:50;;;;;;;;;;;;;;;12.44;100.00;96915.94;5087157;28;19954;-72
2024/03/21 08:31:16;;;;;;;;;;;;;;;12.53;100.00;96919.88;5051020;28;19949;-71
2024/03/21 08:33:42;;;;;;;;;;;;;;;12.58;100.00;96914.78;5069231;28;19975;-71
2024/03/21 08:36:08;;;;;;;;;;;;;;;12.65;100.00;96910.25;5086346;28;19935;-71
2024/03/21 08:38:34;;;;;;;;;;;;;;;12.73;100.00;96906.53;5086323;28;19944;-70
2024/03/21 08:41:00;;;;;;;;;;;;;;;12.81;100.00;96914.13;5069034;28;19990;-71
2024/03/21 08:43:25;;;;;;;;;;;;;;;12.88;100.00;96916.69;5086878;28;20212;-80
2024/03/21 08:45:52;;;;;;;;;;;;;;;12.92;100.00;96915.22;5086229;28;19941;-81
2024/03/21 08:48:18;;;;;;;;;;;;;;;12.97;100.00;96917.97;5086618;28;20264;-81
2024/03/21 08:50:45;;;;;;;;;;;;;;;13.02;100.00;96919.94;5086888;28;19942;-80
2024/03/21 08:53:11;;;;;;;;;;;;;;;13.07;100.00;96922.72;5069148;28;20211;-80
2024/03/21 08:55:37;;;;;;;;;;;;;;;13.14;100.00;96921.59;5086464;28;20085;-80
2024/03/21 08:58:04;;;;;;;;;;;;;;;13.23;100.00;96931.81;5051474;28;19935;-70
2024/03/21 09:00:33;;;;;;;;;;;;;;;13.28;100.00;96922.25;5051448;28;19943;-70
2024/03/21 09:02:59;;;;;;;;;;;;;;;13.32;100.00;96917.38;5086196;28;19935;-70
2024/03/21 09:05:25;;;;;;;;;;;;;;;13.36;100.00;96923.78;5085750;28;19936;-69
2024/03/21 09:07:51;;;;;;;;;;;;;;;13.42;100.00;96930.81;5051149;28;19955;-70
2024/03/21 09:10:17;;;;;;;;;;;;;;;13.53;100.00;96916.84;5067836;28;19965;-70
2024/03/21 09:12:43;;;;;;;;;;;;;;;13.83;100.00;96920.47;5050973;28;20275;-70
2024/03/21 09:15:10;;;;;;;;;;;;;;;14.20;100.00;96915.81;5086337;28;19935;-81
2024/03/21 09:17:36;;;;;;;;;;;;;;;14.60;100.00;96910.66;5085628;28;19945;-79
2024/03/21 09:20:02;;;;;;;;;;;;;;;15.07;100.00;96888.63;5086057;28;19939;-75
2024/03/21 09:22:30;;;;;;;;;;;;;;;15.43;100.00;96883.97;5085454;28;19945;-76
2024/03/21 09:24:55;;;;;;;;;;;;;;;15.40;100.00;96855.41;5085417;28;20216;-75
2024/03/21 09:27:21;;;;;;;;;;;;;;;15.35;100.00;96857.94;5086055;28;19931;-74
2024/03/21 09:29:47;;;;;;;;;;;;;;;15.31;100.00;96880.63;5085294;28;19939;-75
2024/03/21 09:32:13;;;;;;;;;;;;;;;15.30;100.00;96865.78;5068238;28;20177;-74
2024/03/21 09:34:39;;;;;;;;;;;;;;;15.29;100.00;96870.28;5086026;28;19944;-78
2024/03/21 09:37:05;;;;;;;;;;;;;;;15.32;100.00;96882.19;5086058;28;20251;-79
2024/03/21 09:39:30;;;;;;;;;;;;;;;15.35;100.00;96850.84;5085488;28;19948;-78
2024/03/21 09:41:57;;;;;;;;;;;;;;;15.41;100.00;96871.03;5084920;28;19970;-79
2024/03/21 09:44:23;;;;;;;;;;;;;;;15.55;100.00;96866.22;5085564;28;19939;-79
2024/03/21 09:46:49;;;;;;;;;;;;;;;15.63;100.00;96871.13;5067867;28;19951;-79
2024/03/21 09:49:15;;;;;;;;;;;;;;;15.76;100.00;96872.66;5084901;28;19958;-79
2024/03/21 09:51:42;;;;;;;;;;;;;;;15.99;100.00;96870.91;5085176;28;19935;-78
2024/03/21 09:54:09;;;;;;;;;;;;;;;16.15;100.00;96864.81;5084899;28;19938;-76
2024/03/21 09:56:35;;;;;;;;;;;;;;;16.48;100.00;96880.84;5067452;28;20266;-74
2024/03/21 09:59:01;;;;;;;;;;;;;;;16.66;95.67;96840.03;5084836;28;19965;-77
2024/03/21 10:01:27;;;;;;;;;;;;;;;16.61;99.36;96864.63;5066890;28;19970;-77
2024/03/21 10:03:55;;;;;;;;;;;;;;;16.49;98.40;96856.00;5067687;28;19945;-77
2024/03/21 10:06:21;;;;;;;;;;;;;;;16.29;97.51;96861.81;5084614;28;19958;-77
2024/03/21 10:08:46;;;;;;;;;;;;;;;16.13;98.79;96871.38;5084508;28;20245;-77
2024/03/21 10:11:12;;;;;;;;;;;;;;;16.02;96.58;96870.41;5084598;28;19938;-80
2024/03/21 10:13:41;;;;;;;;;;;;;;;15.92;98.77;96879.00;5085022;28;19945;-77
2024/03/21 10:16:11;;;;;;;;;;;;;;;16.05;97.15;96863.84;5066759;28;19990;-79
2024/03/21 10:18:43;;;;;;;;;;;;;;;16.34;96.16;96864.53;5084372;28;20256;-75
2024/03/21 10:21:13;;;;;;;;;;;;;;;16.67;92.01;96839.00;5084698;28;19945;-75
2024/03/21 10:23:39;;;;;;;;;;;;;;;16.71;87.75;96821.56;5085103;28;19941;-75
2024/03/21 10:26:12;;;;;;;;;;;;;;;16.57;90.98;96844.97;5066490;28;19940;-76
2024/03/21 10:28:37;;;;;;;;;;;;;;;16.46;93.48;96864.41;5050585;28;19956;-75
2024/03/21 10:31:04;;;;;;;;;;;;;;;16.56;90.44;96840.72;5067235;28;19968;-71
2024/03/21 10:33:32;;;;;;;;;;;;;;;16.82;94.60;96858.53;5084168;28;19935;-76
2024/03/21 10:35:57;;;;;;;;;;;;;;;17.22;88.38;96819.47;5084147;28;20235;-76
2024/03/21 10:38:23;;;;;;;;;;;;;;;17.56;90.50;96816.59;5084097;28;19935;-76
2024/03/21 10:40:55;;;;;;;;;;;;;;;17.55;88.34;96810.47;5066759;28;20209;-76
2024/03/21 10:43:22;;;;;;;;;;;;;;;17.69;85.90;96804.75;5050280;28;19950;-77
2024/03/21 10:45:48;;;;;;;;;;;;;;;17.89;79.53;96769.63;5022569;28;19958;-76
2024/03/21 10:48:30;;;;;;;;;;;;;;;18.15;79.21;96749.34;5006753;28;20169;-71
2024/03/21 10:50:56;;;;;;;;;;;;;;;18.42;64.63;96709.34;5022750;28;19943;-76
2024/03/21 10:53:22;;;;;;;;;;;;;;;18.63;70.47;96915.53;5022384;28;19938;-76
2024/03/21 10:55:50;;;;;;;;;;;;;;;18.97;69.33;96925.00;5022925;28;19950;-76
2024/03/21 10:58:16;;;;;;;;;;;;;;;19.25;70.46;96921.91;5023299;28;19940;-76
2024/03/21 11:00:49;;;;;;;;;;;;;;;19.33;71.17;96933.13;5006111;28;19934;-77
2024/03/21 11:03:15;;;;;;;;;;;;;;;19.61;65.15;96943.28;5022410;28;19939;-76
2024/03/21 11:05:41;;;;;;;;;;;;;;;19.67;60.51;96958.22;5023126;28;19937;-71
2024/03/21 11:08:42;;;;;;;;;;;;;;;19.79;61.73;96954.53;5006132;28;20256;-79
2024/03/21 11:11:08;;;;;;;;;;;;;;;19.51;63.96;96950.44;4963965;29;19946;-76
2024/03/21 11:13:34;;;;;;;;;;;;;;;19.09;64.36;96959.34;4997586;28;20288;-77
2024/03/21 11:16:00;;;;;;;;;;;;;;;18.52;62.96;96969.66;5032263;28;20117;-77
2024/03/21 11:18:26;;;;;;;;;;;;;;;18.42;58.74;96974.91;5066612;28;19939;-77
2024/03/21 11:20:52;;;;;;;;;;;;;;;18.50;72.73;96974.44;5083741;28;19937;-77
2024/03/21 11:23:19;;;;;;;;;;;;;;;18.78;60.45;96965.31;5084226;28;19934;-78
2024/03/21 11:25:45;;;;;;;;;;;;;;;18.98;61.43;96972.59;5066541;28;19941;-74
2024/03/21 11:28:12;;;;;;;;;;;;;;;19.19;54.04;96972.66;5083578;28;19958;-72
2024/03/21 11:30:44;;;;;;;;;;;;;;;19.09;51.97;96969.97;5066563;28;20216;-73
2024/03/21 11:33:10;;;;;;;;;;;;;;;19.20;53.10;96974.28;5083547;28;19940;-72
2024/03/21 11:35:39;;;;;;;;;;;;;;;19.34;52.37;96982.56;5066258;28;19934;-73
2024/03/21 11:38:05;;;;;;;;;;;;;;;19.35;51.44;96982.31;5083480;28;19951;-72
2024/03/21 11:40:31;;;;;;;;;;;;;;;19.38;52.56;96984.47;5065531;28;19937;-72
2024/03/21 11:43:04;;;;;;;;;;;;;;;19.33;51.97;96978.31;5083360;28;19968;-74
2024/03/21 11:45:31;;;;;;;;;;;;;;;19.18;56.81;96987.84;5049717;28;20118;-72
2024/03/21 11:48:16;;;;;;;;;;;;;;;19.33;53.31;96978.31;5048846;28;19957;-79
2024/03/21 11:50:41;;;;;;;;;;;;;;;19.44;58.34;96987.94;5083670;28;19942;-78
2024/03/21 11:53:08;;;;;;;;;;;;;;;19.45;50.99;96981.56;5084219;28;19946;-78
2024/03/21 11:55:34;;;;;;;;;;;;;;;19.46;50.29;96983.97;5065766;28;19947;-79
2024/03/21 11:58:00;;;;;;;;;;;;;;;19.39;54.69;96988.72;5065593;28;19944;-78
2024/03/21 12:00:26;;;;;;;;;;;;;;;19.04;49.83;96992.81;5083879;28;19994;-79
2024/03/21 12:02:52;;;;;;;;;;;;;;;18.74;53.08;96996.09;5065544;28;20142;-78
2024/03/21 12:05:18;;;;;;;;;;;;;;;18.70;60.47;96997.66;5084579;28;19939;-75
2024/03/21 12:07:44;;;;;;;;;;;;;;;18.76;56.95;96990.53;5069915;28;20016;-72
2024/03/21 12:10:11;;;;;;;;;;;;;;;18.47;54.19;96985.53;5087435;28;19963;-72
2024/03/21 12:12:37;;;;;;;;;;;;;;;18.22;54.32;96991.47;5068936;28;20234;-72
2024/03/21 12:15:04;;;;;;;;;;;;;;;17.91;52.79;97001.00;5052224;28;19946;-72
2024/03/21 12:17:31;;;;;;;;;;;;;;;17.65;52.21;97008.69;5086700;28;19934;-73
2024/03/21 12:20:00;;;;;;;;;;;;;;;17.48;53.54;97008.75;5086750;28;19938;-74
2024/03/21 12:22:26;;;;;;;;;;;;;;;17.57;54.62;97012.56;5087168;28;19938;-76
2024/03/21 12:24:53;;;;;;;;;;;;;;;17.83;55.23;97004.94;5069169;28;19949;-72
2024/03/21 12:27:19;;;;;;;;;;;;;;;17.96;54.14;97007.16;5086552;28;20149;-74
2024/03/21 12:29:47;;;;;;;;;;;;;;;17.87;50.81;97003.38;5086521;28;19950;-73
2024/03/21 12:32:13;;;;;;;;;;;;;;;17.97;53.91;97011.41;5068456;28;19948;-73
2024/03/21 12:34:39;;;;;;;;;;;;;;;18.05;49.93;97018.13;5069286;28;20118;-72
2024/03/21 12:37:06;;;;;;;;;;;;;;;18.04;49.71;97003.28;5086425;28;19942;-73
2024/03/21 12:39:33;;;;;;;;;;;;;;;18.07;54.48;97005.41;5086908;28;19940;-72
2024/03/21 12:41:59;;;;;;;;;;;;;;;18.08;49.99;96999.06;5086622;28;19960;-76
2024/03/21 12:44:24;;;;;;;;;;;;;;;18.15;54.24;97012.91;5086306;28;19942;-76